Time;durP1;ratioP1;P1;durP2;ratioP2;P2;SDS_P1;SDS_P2;PMS_P1;PMS_P2;Temp;Humidity;BMP_temperature;BMP_pressure;BME280_temperature;BME280_humidity;BME280_pressure;Samples;Min_cycle;Max_cycle;Signal;HPM_P1;HPM_P2
2023/08/18 00:01:08;;;;;;;;;;;;;;;28.37;56.73;101205.09;5113864;27;19920;-88
2023/08/18 00:03:33;;;;;;;;;;;;;;;28.38;56.55;101205.03;5112595;28;19919;-88
2023/08/18 00:05:59;;;;;;;;;;;;;;;28.41;56.59;101202.34;5097085;27;20536;-88
2023/08/18 00:08:24;;;;;;;;;;;;;;;28.40;56.50;101213.09;5113012;27;19990;-88
2023/08/18 00:10:50;;;;;;;;;;;;;;;28.39;56.85;101205.97;5121164;27;19923;-89
2023/08/18 00:13:15;;;;;;;;;;;;;;;28.37;56.87;101205.09;5095989;28;20333;-88
2023/08/18 00:15:40;;;;;;;;;;;;;;;28.40;56.72;101210.41;5121795;27;20369;-89
2023/08/18 00:18:06;;;;;;;;;;;;;;;28.39;56.75;101205.97;5101331;27;19937;-88
2023/08/18 00:20:31;;;;;;;;;;;;;;;28.39;56.96;101206.84;5100077;27;20358;-88
2023/08/18 00:22:57;;;;;;;;;;;;;;;28.38;56.90;101201.47;5102333;27;19926;-88
2023/08/18 00:25:22;;;;;;;;;;;;;;;28.38;56.66;101198.78;5104689;28;20605;-88
2023/08/18 00:27:48;;;;;;;;;;;;;;;28.37;56.95;101202.41;5110671;27;19972;-88
2023/08/18 00:30:13;;;;;;;;;;;;;;;28.37;56.88;101197.91;5108817;27;19923;-88
2023/08/18 00:32:39;;;;;;;;;;;;;;;28.38;57.00;101196.97;5101512;27;19927;-87
2023/08/18 00:35:04;;;;;;;;;;;;;;;28.37;57.02;101194.34;5127646;27;20265;-87
2023/08/18 00:37:30;;;;;;;;;;;;;;;28.37;56.95;101194.34;5118152;27;20076;-88
2023/08/18 00:39:55;;;;;;;;;;;;;;;28.38;56.92;101193.41;5089755;28;19916;-87
2023/08/18 00:42:20;;;;;;;;;;;;;;;28.37;56.95;101195.22;5091911;28;19916;-88
2023/08/18 00:44:46;;;;;;;;;;;;;;;28.36;56.84;101193.47;5079089;28;20613;-87
2023/08/18 00:47:12;;;;;;;;;;;;;;;28.36;57.19;101193.47;5071417;28;19916;-88
2023/08/18 00:49:37;;;;;;;;;;;;;;;28.37;57.12;101194.34;5082557;28;20385;-87
2023/08/18 00:52:03;;;;;;;;;;;;;;;28.38;57.08;101193.41;5078250;28;19938;-88
2023/08/18 00:54:29;;;;;;;;;;;;;;;28.37;56.93;101192.53;5090744;28;19912;-87
2023/08/18 00:56:55;;;;;;;;;;;;;;;28.35;57.37;101188.97;5087580;28;19923;-87
2023/08/18 00:59:20;;;;;;;;;;;;;;;28.35;57.16;101182.72;5074162;28;19916;-87
2023/08/18 01:01:46;;;;;;;;;;;;;;;28.34;57.19;101180.94;5078085;28;20393;-89
2023/08/18 01:04:12;;;;;;;;;;;;;;;28.34;57.54;101173.78;5093368;28;19912;-88
2023/08/18 01:06:40;;;;;;;;;;;;;;;28.35;57.42;101178.22;5078846;28;20691;-88
2023/08/18 01:09:06;;;;;;;;;;;;;;;28.35;57.03;101171.97;5096059;28;19912;-89
2023/08/18 01:11:48;;;;;;;;;;;;;;;28.34;57.23;101181.84;5106990;28;19912;-88
2023/08/18 01:14:14;;;;;;;;;;;;;;;28.34;56.93;101176.47;5081499;28;19916;-88
2023/08/18 01:16:39;;;;;;;;;;;;;;;28.35;57.41;101186.28;5082082;28;19920;-87
2023/08/18 01:19:05;;;;;;;;;;;;;;;28.34;57.25;101181.84;5098235;28;20005;-88
2023/08/18 01:21:31;;;;;;;;;;;;;;;28.33;57.48;101182.75;5096138;28;20664;-88
2023/08/18 01:23:59;;;;;;;;;;;;;;;28.34;57.56;101187.22;5095503;28;20007;-88
2023/08/18 01:26:25;;;;;;;;;;;;;;;28.35;57.41;101188.09;5096455;28;19942;-89
2023/08/18 01:28:50;;;;;;;;;;;;;;;28.34;57.38;101186.31;5092145;28;20418;-89
2023/08/18 01:31:19;;;;;;;;;;;;;;;28.33;57.29;101189.91;5081461;28;20365;-88
2023/08/18 01:33:54;;;;;;;;;;;;;;;28.31;57.47;101176.50;5095212;28;20478;-87
2023/08/18 01:36:20;;;;;;;;;;;;;;;28.28;57.43;101171.19;5102098;28;20405;-87
2023/08/18 01:38:46;;;;;;;;;;;;;;;28.29;57.75;101174.75;5107990;27;19927;-88
2023/08/18 01:41:11;;;;;;;;;;;;;;;28.29;57.83;101177.44;5111354;28;19916;-87
2023/08/18 01:43:37;;;;;;;;;;;;;;;28.29;57.92;101175.63;5094493;28;19981;-87
2023/08/18 01:46:02;;;;;;;;;;;;;;;28.29;57.56;101181.00;5116088;27;19920;-87
2023/08/18 01:48:28;;;;;;;;;;;;;;;28.30;57.72;101173.81;5094043;28;19959;-87
2023/08/18 01:50:53;;;;;;;;;;;;;;;28.27;57.81;101173.88;5111333;27;19916;-87
2023/08/18 01:53:19;;;;;;;;;;;;;;;28.26;58.41;101180.13;5076244;28;19927;-87
2023/08/18 01:55:44;;;;;;;;;;;;;;;28.26;58.14;101181.06;5101897;28;19962;-86
2023/08/18 01:58:10;;;;;;;;;;;;;;;28.26;57.94;101180.13;5112287;28;20373;-88
2023/08/18 02:00:35;;;;;;;;;;;;;;;28.27;57.97;101176.56;5093552;27;19919;-87
2023/08/18 02:03:00;;;;;;;;;;;;;;;28.28;58.03;101179.22;5097675;28;19912;-88
2023/08/18 02:05:26;;;;;;;;;;;;;;;28.27;58.06;101177.44;5102701;28;20304;-86
2023/08/18 02:07:51;;;;;;;;;;;;;;;28.24;58.17;101190.91;5110205;27;19922;-88
2023/08/18 02:10:17;;;;;;;;;;;;;;;28.25;58.08;101191.81;5093029;28;20386;-88
2023/08/18 02:12:42;;;;;;;;;;;;;;;28.25;58.08;101191.81;5111786;28;19924;-89
2023/08/18 02:15:08;;;;;;;;;;;;;;;28.24;58.08;101193.63;5079035;28;19915;-88
2023/08/18 02:17:34;;;;;;;;;;;;;;;28.26;58.23;101188.19;5093548;28;19923;-88
2023/08/18 02:20:00;;;;;;;;;;;;;;;28.23;58.32;101191.81;5104577;28;19931;-87
2023/08/18 02:22:25;;;;;;;;;;;;;;;28.20;58.35;101183.81;5110643;28;20002;-88
2023/08/18 02:24:51;;;;;;;;;;;;;;;28.23;58.48;101190.00;5094504;27;19916;-86
2023/08/18 02:30:22;;;;;;;;;;;;;;;28.27;58.22;101192.69;5117943;27;20307;-88
2023/08/18 02:32:48;;;;;;;;;;;;;;;28.26;58.35;101189.09;5104414;27;19911;-88
2023/08/18 02:35:13;;;;;;;;;;;;;;;28.26;58.27;101197.16;5100305;28;19920;-88
2023/08/18 02:40:55;;;;;;;;;;;;;;;28.27;58.08;101196.25;5121644;27;19931;-89
2023/08/18 02:49:26;;;;;;;;;;;;;;;28.24;58.39;101207.03;5135882;27;19964;-90
2023/08/18 02:51:52;;;;;;;;;;;;;;;28.19;58.76;101206.19;5118581;27;19911;-88
2023/08/18 02:54:17;;;;;;;;;;;;;;;28.20;59.01;101205.28;5099264;28;20379;-87
2023/08/18 02:56:42;;;;;;;;;;;;;;;28.16;59.11;101204.44;5124136;27;19919;-87
2023/08/18 02:59:08;;;;;;;;;;;;;;;28.19;59.04;101206.19;5114336;28;19934;-90
2023/08/18 03:01:35;;;;;;;;;;;;;;;28.21;58.65;101210.66;5118119;27;19916;-88
2023/08/18 03:04:01;;;;;;;;;;;;;;;28.21;58.75;101217.81;5113237;27;20304;-90
2023/08/18 03:06:26;;;;;;;;;;;;;;;28.25;58.57;101224.03;5078154;28;20389;-87
2023/08/18 03:08:51;;;;;;;;;;;;;;;28.20;58.81;101227.66;5113150;27;19980;-87
2023/08/18 03:11:17;;;;;;;;;;;;;;;28.18;58.57;101229.47;5095875;28;19955;-88
2023/08/18 03:13:42;;;;;;;;;;;;;;;28.18;58.47;101226.78;5112787;27;20341;-87
2023/08/18 03:16:08;;;;;;;;;;;;;;;28.17;59.01;101230.41;5125445;27;19964;-89
2023/08/18 03:18:33;;;;;;;;;;;;;;;28.07;58.70;101204.56;5089795;27;19919;-90
2023/08/18 03:21:03;;;;;;;;;;;;;;;28.20;58.57;101233.03;5089389;27;20301;-88
2023/08/18 03:23:29;;;;;;;;;;;;;;;28.19;58.78;101235.72;5113301;28;20437;-89
2023/08/18 03:26:00;;;;;;;;;;;;;;;28.19;58.71;101238.41;5090938;27;19998;-89
2023/08/18 03:28:29;;;;;;;;;;;;;;;28.21;58.62;101242.88;5111142;27;20055;-91
2023/08/18 03:31:04;;;;;;;;;;;;;;;28.20;58.49;101245.59;5100862;27;20380;-86
2023/08/18 03:34:05;;;;;;;;;;;;;;;28.17;58.35;101248.28;5120225;27;20011;-89
2023/08/18 03:36:30;;;;;;;;;;;;;;;28.20;59.05;101256.31;5082104;28;19954;-87
2023/08/18 03:38:56;;;;;;;;;;;;;;;28.19;58.49;101260.81;5052438;28;20305;-87
2023/08/18 03:41:24;;;;;;;;;;;;;;;28.18;58.41;101261.69;5068489;28;19920;-87
2023/08/18 03:43:49;;;;;;;;;;;;;;;28.20;58.67;101267.06;5068845;28;19920;-86
2023/08/18 03:46:20;;;;;;;;;;;;;;;28.19;58.62;101265.28;5086686;28;19922;-86
2023/08/18 03:48:45;;;;;;;;;;;;;;;28.20;58.44;101262.56;5069692;28;20046;-88
2023/08/18 03:51:13;;;;;;;;;;;;;;;28.20;58.44;101262.56;5084777;27;19994;-87
2023/08/18 03:53:38;;;;;;;;;;;;;;;28.20;58.32;101267.94;5121674;27;19915;-87
2023/08/18 03:56:04;;;;;;;;;;;;;;;28.19;58.80;101265.28;5121553;27;20461;-89
2023/08/18 03:58:30;;;;;;;;;;;;;;;28.20;58.43;101269.75;5113283;27;19919;-87
2023/08/18 04:01:02;;;;;;;;;;;;;;;28.20;58.66;101273.31;5121297;27;19976;-87
2023/08/18 04:03:28;;;;;;;;;;;;;;;28.19;58.48;101263.50;5128681;27;20419;-87
2023/08/18 04:05:53;;;;;;;;;;;;;;;28.20;58.30;101273.31;5099835;27;19946;-87
2023/08/18 04:08:19;;;;;;;;;;;;;;;28.18;58.89;101271.56;5133853;27;20004;-86
2023/08/18 04:10:44;;;;;;;;;;;;;;;28.18;58.67;101275.13;5120537;27;20419;-87
2023/08/18 04:13:11;;;;;;;;;;;;;;;28.17;58.83;101277.81;5102816;27;20312;-86
2023/08/18 04:15:37;;;;;;;;;;;;;;;28.15;58.69;101276.94;5119320;27;19915;-87
2023/08/18 04:18:03;;;;;;;;;;;;;;;28.16;58.62;101274.25;5117585;27;19919;-87
2023/08/18 04:20:29;;;;;;;;;;;;;;;28.18;58.83;101285.00;5128018;27;20353;-90
2023/08/18 04:22:54;;;;;;;;;;;;;;;28.16;58.96;101278.75;5101623;27;19964;-89
2023/08/18 04:25:20;;;;;;;;;;;;;;;28.17;58.67;101275.13;5121388;27;19915;-88
2023/08/18 04:27:45;;;;;;;;;;;;;;;28.14;58.56;101281.44;5116300;27;19923;-89
2023/08/18 04:30:11;;;;;;;;;;;;;;;28.16;58.70;101284.13;5125755;27;20003;-89
2023/08/18 04:32:36;;;;;;;;;;;;;;;28.17;58.83;101280.50;5132759;27;19972;-88
2023/08/18 04:35:03;;;;;;;;;;;;;;;28.15;58.84;101276.94;5105171;27;19939;-89
2023/08/18 04:37:28;;;;;;;;;;;;;;;28.12;59.18;101275.19;5118624;27;20292;-89
2023/08/18 04:39:53;;;;;;;;;;;;;;;28.08;59.58;101270.75;5107068;27;20538;-88
2023/08/18 04:42:20;;;;;;;;;;;;;;;28.09;59.56;101271.63;5111513;27;19928;-89
2023/08/18 04:44:45;;;;;;;;;;;;;;;28.07;60.29;101269.00;5122087;27;19919;-89
2023/08/18 04:47:10;;;;;;;;;;;;;;;28.05;60.12;101268.13;5095966;27;19920;-87
2023/08/18 04:50:08;;;;;;;;;;;;;;;28.00;60.50;101261.88;5107294;28;19969;-88
2023/08/18 04:52:34;;;;;;;;;;;;;;;28.09;60.01;101272.56;5094126;28;19915;-88
2023/08/18 04:54:59;;;;;;;;;;;;;;;28.10;59.39;101260.88;5107464;27;19916;-88
2023/08/18 04:57:25;;;;;;;;;;;;;;;28.08;59.51;101262.69;5107564;27;19994;-88
2023/08/18 04:59:55;;;;;;;;;;;;;;;28.08;59.77;101270.75;5103352;28;20301;-87
2023/08/18 05:02:21;;;;;;;;;;;;;;;28.02;59.83;101257.38;5095753;28;19923;-87
2023/08/18 05:07:49;;;;;;;;;;;;;;;28.12;59.17;101255.50;5113252;28;19923;-88
2023/08/18 05:10:14;;;;;;;;;;;;;;;28.09;59.21;101261.81;5094287;28;20300;-86
2023/08/18 05:12:40;;;;;;;;;;;;;;;28.11;59.14;101269.81;5111743;28;19913;-86
2023/08/18 05:15:09;;;;;;;;;;;;;;;28.11;59.02;101269.81;5124048;28;19915;-87
2023/08/18 05:18:12;;;;;;;;;;;;;;;28.11;59.06;101276.13;5132406;28;19934;-87
2023/08/18 05:20:37;;;;;;;;;;;;;;;28.13;58.72;101282.34;5132642;27;19915;-86
2023/08/18 05:23:05;;;;;;;;;;;;;;;28.14;58.95;101278.75;5106838;28;19919;-87
2023/08/18 05:25:32;;;;;;;;;;;;;;;28.17;58.87;101280.50;5125178;27;19915;-87
2023/08/18 05:27:57;;;;;;;;;;;;;;;28.18;58.73;101274.25;5120971;28;20393;-87
2023/08/18 05:30:22;;;;;;;;;;;;;;;28.17;58.49;101277.81;5085195;27;19969;-87
2023/08/18 05:32:49;;;;;;;;;;;;;;;28.16;58.46;101274.25;5111421;28;19911;-87
2023/08/18 05:35:15;;;;;;;;;;;;;;;28.15;58.54;101272.50;5120132;28;20388;-89
2023/08/18 05:37:40;;;;;;;;;;;;;;;28.15;58.34;101269.81;5095019;28;19918;-88
2023/08/18 05:40:06;;;;;;;;;;;;;;;28.14;58.69;101273.38;5129717;28;19996;-87
2023/08/18 05:42:31;;;;;;;;;;;;;;;28.17;58.20;101286.78;5094803;27;19926;-88
2023/08/18 05:44:57;;;;;;;;;;;;;;;28.14;58.53;101280.56;5109977;28;20277;-87
2023/08/18 05:47:22;;;;;;;;;;;;;;;28.10;58.30;101285.06;5105599;28;20430;-85
2023/08/18 05:49:48;;;;;;;;;;;;;;;28.13;58.30;101279.69;5120717;27;20430;-87
2023/08/18 05:52:13;;;;;;;;;;;;;;;28.14;58.30;101272.50;5107295;28;19919;-87
2023/08/18 05:54:39;;;;;;;;;;;;;;;28.15;58.46;101279.63;5118269;27;19923;-86
2023/08/18 05:57:04;;;;;;;;;;;;;;;28.14;58.29;101275.19;5125091;27;20376;-86
2023/08/18 05:59:32;;;;;;;;;;;;;;;28.15;58.23;101282.31;5124577;27;19912;-87
2023/08/18 06:01:58;;;;;;;;;;;;;;;28.17;58.02;101285.88;5119165;27;19919;-87
2023/08/18 06:04:23;;;;;;;;;;;;;;;28.12;58.00;101288.63;5103942;27;20364;-88
2023/08/18 06:06:49;;;;;;;;;;;;;;;28.12;57.88;101280.56;5105214;27;19945;-88
2023/08/18 06:09:14;;;;;;;;;;;;;;;28.14;58.07;101277.88;5152986;27;19915;-86
2023/08/18 06:11:41;;;;;;;;;;;;;;;28.15;57.57;101269.81;5125224;27;19956;-86
2023/08/18 06:14:06;;;;;;;;;;;;;;;28.13;57.52;101282.34;5138843;27;19919;-87
2023/08/18 06:16:32;;;;;;;;;;;;;;;28.15;57.54;101280.53;5135302;27;19924;-87
2023/08/18 06:18:57;;;;;;;;;;;;;;;28.13;57.73;101285.03;5111117;27;19923;-87
2023/08/18 06:21:22;;;;;;;;;;;;;;;28.15;57.65;101287.69;5136674;27;20348;-87
2023/08/18 06:23:48;;;;;;;;;;;;;;;28.12;57.53;101277.88;5108341;27;20456;-86
2023/08/18 06:26:14;;;;;;;;;;;;;;;28.10;56.95;101286.88;5124435;27;20420;-88
2023/08/18 06:28:39;;;;;;;;;;;;;;;28.11;57.25;101288.63;5128373;27;19922;-87
2023/08/18 06:31:07;;;;;;;;;;;;;;;28.14;57.19;101288.63;5113405;27;19956;-87
2023/08/18 06:33:48;;;;;;;;;;;;;;;28.11;56.76;101291.31;5131440;27;19933;-90
2023/08/18 06:36:13;;;;;;;;;;;;;;;28.09;56.81;101302.09;5102862;27;20390;-87
2023/08/18 06:38:39;;;;;;;;;;;;;;;28.10;56.80;101289.53;5129418;27;19912;-86
2023/08/18 06:41:04;;;;;;;;;;;;;;;28.10;57.06;101295.81;5119857;28;19924;-88
2023/08/18 06:43:30;;;;;;;;;;;;;;;28.09;57.36;101298.50;5119208;27;19980;-86
2023/08/18 06:45:55;;;;;;;;;;;;;;;28.10;57.23;101292.22;5131802;27;19954;-89
2023/08/18 06:48:20;;;;;;;;;;;;;;;28.10;56.65;101300.28;5137582;27;19971;-87
2023/08/18 06:50:46;;;;;;;;;;;;;;;28.10;57.31;101303.84;5130452;27;20381;-88
2023/08/18 06:53:33;;;;;;;;;;;;;;;28.08;56.44;101302.97;5111783;27;20434;-88
2023/08/18 06:55:58;;;;;;;;;;;;;;;28.08;56.47;101307.47;5138536;27;19912;-87
2023/08/18 06:58:24;;;;;;;;;;;;;;;28.09;56.63;101309.22;5133366;27;19936;-87
2023/08/18 07:00:49;;;;;;;;;;;;;;;28.09;57.53;101314.59;5124396;27;20021;-88
2023/08/18 07:03:15;;;;;;;;;;;;;;;28.12;56.61;101319.97;5110199;27;19915;-88
2023/08/18 07:05:40;;;;;;;;;;;;;;;28.10;56.94;101327.13;5119333;27;19938;-88
2023/08/18 07:08:06;;;;;;;;;;;;;;;28.10;57.40;101327.13;5122001;27;20423;-87
2023/08/18 07:10:31;;;;;;;;;;;;;;;28.10;57.26;101333.38;5148695;27;20345;-86
2023/08/18 07:12:57;;;;;;;;;;;;;;;28.13;57.38;101341.44;5133478;27;20010;-86
2023/08/18 07:15:22;;;;;;;;;;;;;;;28.12;56.57;101326.22;5110836;28;20351;-87
2023/08/18 07:17:48;;;;;;;;;;;;;;;28.08;57.83;101334.31;5141732;27;20358;-85
2023/08/18 07:20:13;;;;;;;;;;;;;;;28.09;57.62;101341.47;5128216;27;20461;-85
2023/08/18 07:22:39;;;;;;;;;;;;;;;28.09;57.01;101337.00;5137901;27;19981;-87
2023/08/18 07:25:05;;;;;;;;;;;;;;;28.10;56.70;101343.25;5101515;27;19976;-85
2023/08/18 07:27:30;;;;;;;;;;;;;;;28.11;56.96;101343.25;5140614;27;20368;-86
2023/08/18 07:29:56;;;;;;;;;;;;;;;28.10;57.67;101344.13;5130242;27;20386;-86
2023/08/18 07:32:21;;;;;;;;;;;;;;;28.12;56.88;101345.00;5118270;27;19919;-85
2023/08/18 07:34:47;;;;;;;;;;;;;;;28.13;57.00;101354.88;5121911;27;19982;-86
2023/08/18 07:37:13;;;;;;;;;;;;;;;28.12;57.14;101355.75;5127016;27;20249;-88
2023/08/18 07:39:38;;;;;;;;;;;;;;;28.14;57.33;101350.38;5112519;27;19919;-85
2023/08/18 07:42:03;;;;;;;;;;;;;;;28.15;56.96;101353.06;5122336;27;20396;-87
2023/08/18 07:44:29;;;;;;;;;;;;;;;28.15;57.06;101345.00;5108289;27;19911;-87
2023/08/18 07:46:55;;;;;;;;;;;;;;;28.16;56.74;101351.25;5135168;27;19990;-88
2023/08/18 07:49:21;;;;;;;;;;;;;;;28.13;57.22;101341.44;5106963;27;19912;-88
2023/08/18 07:51:47;;;;;;;;;;;;;;;28.14;56.96;101335.16;5133863;27;19922;-88
2023/08/18 07:54:13;;;;;;;;;;;;;;;28.15;56.90;101342.31;5121461;27;19922;-88
2023/08/18 07:56:38;;;;;;;;;;;;;;;28.15;56.92;101333.34;5113217;28;19916;-88
2023/08/18 07:59:03;;;;;;;;;;;;;;;28.17;56.88;101331.53;5120954;27;19920;-86
2023/08/18 08:01:29;;;;;;;;;;;;;;;28.19;56.62;101332.41;5126930;27;19920;-88
2023/08/18 08:03:55;;;;;;;;;;;;;;;28.19;57.01;101327.94;5122973;27;20373;-87
2023/08/18 08:06:39;;;;;;;;;;;;;;;28.17;56.48;101321.72;5125000;27;19972;-88
2023/08/18 08:09:05;;;;;;;;;;;;;;;28.17;57.33;101324.41;5128756;27;19923;-87
2023/08/18 08:11:31;;;;;;;;;;;;;;;28.18;56.82;101325.28;5114983;27;19916;-87
2023/08/18 08:13:56;;;;;;;;;;;;;;;28.18;56.76;101326.16;5119160;27;19942;-85
2023/08/18 08:16:22;;;;;;;;;;;;;;;28.19;56.92;101324.34;5101755;27;19912;-88
2023/08/18 08:18:48;;;;;;;;;;;;;;;28.20;56.69;101323.47;5119369;27;19968;-86
2023/08/18 08:21:13;;;;;;;;;;;;;;;28.17;57.12;101326.16;5112445;27;19975;-88
2023/08/18 08:23:38;;;;;;;;;;;;;;;28.20;56.71;101318.09;5111868;27;19950;-90
2023/08/18 08:26:04;;;;;;;;;;;;;;;28.22;56.90;101318.97;5108724;27;19919;-88
2023/08/18 08:28:29;;;;;;;;;;;;;;;28.19;56.70;101309.16;5090209;28;20385;-88
2023/08/18 08:30:55;;;;;;;;;;;;;;;28.20;56.59;101310.91;5105434;27;20086;-89
2023/08/18 08:33:21;;;;;;;;;;;;;;;28.22;56.86;101316.28;5134900;27;19969;-90
2023/08/18 08:35:47;;;;;;;;;;;;;;;28.22;56.73;101319.84;5103128;27;19995;-88
2023/08/18 08:38:12;;;;;;;;;;;;;;;28.23;56.57;101321.63;5113045;27;19968;-85
2023/08/18 08:40:37;;;;;;;;;;;;;;;28.22;56.65;101314.47;5111260;27;19919;-87
2023/08/18 08:43:04;;;;;;;;;;;;;;;28.25;56.67;101312.66;5116132;27;20007;-88
2023/08/18 08:45:29;;;;;;;;;;;;;;;28.24;56.60;101314.47;5125077;27;19915;-87
2023/08/18 08:47:56;;;;;;;;;;;;;;;28.26;56.51;101319.81;5132873;27;20419;-88
2023/08/18 08:50:21;;;;;;;;;;;;;;;28.26;56.73;101318.03;5109787;27;19926;-88
2023/08/18 08:52:48;;;;;;;;;;;;;;;28.27;56.66;101316.22;5122895;27;19916;-87
2023/08/18 08:55:14;;;;;;;;;;;;;;;28.28;56.51;101320.69;5119169;27;19912;-88
2023/08/18 08:57:39;;;;;;;;;;;;;;;28.27;56.62;101316.22;5109141;28;19961;-87
2023/08/18 09:00:05;;;;;;;;;;;;;;;28.27;56.72;101309.06;5121558;28;20006;-88
2023/08/18 09:02:30;;;;;;;;;;;;;;;28.28;56.38;101310.84;5118964;28;20629;-87
2023/08/18 09:05:00;;;;;;;;;;;;;;;28.29;56.93;101307.25;5106076;28;19923;-86
2023/08/18 09:07:26;;;;;;;;;;;;;;;28.28;56.64;101307.25;5118368;28;19930;-88
2023/08/18 09:09:52;;;;;;;;;;;;;;;28.29;56.63;101315.31;5131647;27;19981;-89
2023/08/18 09:12:18;;;;;;;;;;;;;;;28.28;56.75;101307.25;5119040;27;19915;-91
2023/08/18 09:14:43;;;;;;;;;;;;;;;28.29;56.73;101311.72;5094225;27;20404;-89
2023/08/18 09:17:09;;;;;;;;;;;;;;;28.30;57.04;101298.28;5108129;28;19916;-91
2023/08/18 09:22:59;;;;;;;;;;;;;;;28.31;56.83;101313.47;5132625;28;20421;-90
2023/08/18 09:25:43;;;;;;;;;;;;;;;28.29;56.91;101317.09;5079168;28;20354;-91
2023/08/18 09:28:09;;;;;;;;;;;;;;;28.33;56.27;101318.84;5111219;28;19979;-92
2023/08/18 09:30:34;;;;;;;;;;;;;;;28.33;56.26;101324.22;5091954;28;19923;-90
2023/08/18 09:33:22;;;;;;;;;;;;;;;28.31;56.28;101326.91;5098414;28;19920;-91
2023/08/18 09:36:10;;;;;;;;;;;;;;;28.35;56.29;101330.47;5097295;28;19934;-89
2023/08/18 09:38:56;;;;;;;;;;;;;;;28.39;56.13;101333.09;5129050;27;19916;-87
2023/08/18 09:41:22;;;;;;;;;;;;;;;28.37;56.30;101328.66;5111975;28;19924;-88
2023/08/18 09:43:53;;;;;;;;;;;;;;;28.38;56.34;101325.94;5096409;28;20052;-88
2023/08/18 09:46:19;;;;;;;;;;;;;;;28.35;56.39;101317.03;5107742;28;19916;-89
2023/08/18 09:48:46;;;;;;;;;;;;;;;28.38;56.61;101323.25;5109618;28;19931;-90
2023/08/18 09:51:12;;;;;;;;;;;;;;;28.34;56.93;101326.91;5102172;28;19919;-89
2023/08/18 09:53:40;;;;;;;;;;;;;;;28.35;57.13;101317.03;5080097;28;19916;-88
2023/08/18 09:56:11;;;;;;;;;;;;;;;28.39;56.69;101322.34;5109665;28;20312;-89
2023/08/18 09:59:12;;;;;;;;;;;;;;;28.42;56.80;101318.75;5110157;28;20432;-89
2023/08/18 10:01:37;;;;;;;;;;;;;;;28.40;56.81;101320.56;5101814;28;19924;-90
2023/08/18 10:04:03;;;;;;;;;;;;;;;28.41;56.77;101312.47;5096422;28;19922;-90
2023/08/18 10:06:30;;;;;;;;;;;;;;;28.38;56.85;101317.88;5095879;28;19920;-88
2023/08/18 10:09:03;;;;;;;;;;;;;;;28.41;56.78;101315.16;5113127;28;19920;-88
2023/08/18 10:11:28;;;;;;;;;;;;;;;28.42;56.83;101318.75;5105037;27;19920;-88
2023/08/18 10:13:56;;;;;;;;;;;;;;;28.40;56.91;101307.13;5113227;27;19919;-90
2023/08/18 10:16:24;;;;;;;;;;;;;;;28.42;57.02;101311.56;5111493;28;19935;-89
2023/08/18 10:19:04;;;;;;;;;;;;;;;28.41;56.78;101307.13;5113323;28;19919;-88
2023/08/18 10:21:35;;;;;;;;;;;;;;;28.43;56.73;101305.28;5121232;27;19966;-88
2023/08/18 10:24:14;;;;;;;;;;;;;;;28.45;56.93;101307.06;5112638;28;19951;-88
2023/08/18 10:26:47;;;;;;;;;;;;;;;28.49;57.36;101314.22;5109772;27;19916;-89
2023/08/18 10:29:15;;;;;;;;;;;;;;;28.46;57.11;101314.22;5096616;28;19922;-87
2023/08/18 10:32:00;;;;;;;;;;;;;;;28.49;56.84;101317.81;5105331;28;19920;-87
2023/08/18 10:34:32;;;;;;;;;;;;;;;28.52;56.89;101323.13;5104883;28;20308;-89
2023/08/18 10:37:18;;;;;;;;;;;;;;;28.52;56.67;101320.44;5100203;27;19935;-89
2023/08/18 10:39:55;;;;;;;;;;;;;;;28.53;56.79;101321.34;5104113;28;20415;-88
2023/08/18 10:42:39;;;;;;;;;;;;;;;28.53;56.78;101313.28;5114435;27;20435;-88
2023/08/18 10:45:21;;;;;;;;;;;;;;;28.53;56.92;101311.50;5108178;27;19924;-87
2023/08/18 10:47:46;;;;;;;;;;;;;;;28.54;56.85;101307.88;5107920;28;19920;-88
2023/08/18 10:50:40;;;;;;;;;;;;;;;28.54;56.86;101304.31;5105524;28;19922;-90
2023/08/18 10:53:07;;;;;;;;;;;;;;;28.54;57.25;101302.50;5094970;28;20389;-88
2023/08/18 10:56:06;;;;;;;;;;;;;;;28.52;57.03;101320.44;5113435;28;20396;-88
2023/08/18 10:58:37;;;;;;;;;;;;;;;28.53;57.22;101307.91;5112012;27;19920;-88
2023/08/18 11:01:15;;;;;;;;;;;;;;;28.52;57.45;101306.13;5115119;27;19920;-89
2023/08/18 11:03:59;;;;;;;;;;;;;;;28.53;57.58;101307.91;5105326;28;19912;-90
2023/08/18 11:06:29;;;;;;;;;;;;;;;28.51;57.72;101318.69;5092429;28;20316;-90
2023/08/18 11:09:25;;;;;;;;;;;;;;;28.55;56.98;101309.66;5093518;28;20011;-90
2023/08/18 11:14:49;;;;;;;;;;;;;;;28.56;57.42;101291.75;5095162;28;20462;-90
2023/08/18 11:17:39;;;;;;;;;;;;;;;28.53;57.95;101292.69;5101024;28;19920;-89
2023/08/18 11:20:16;;;;;;;;;;;;;;;28.50;58.13;101278.41;5110299;28;19916;-89
2023/08/18 11:22:47;;;;;;;;;;;;;;;28.47;58.46;101271.22;5110504;28;19919;-89
2023/08/18 11:25:13;;;;;;;;;;;;;;;28.48;58.40;101270.31;5094269;28;19963;-88
2023/08/18 11:27:40;;;;;;;;;;;;;;;28.46;58.91;101253.31;5090561;28;20003;-89
2023/08/18 11:30:48;;;;;;;;;;;;;;;28.51;58.14;101255.97;5108742;28;19958;-90
2023/08/18 11:33:32;;;;;;;;;;;;;;;28.52;58.76;101301.66;5067876;28;19959;-88
2023/08/18 11:35:57;;;;;;;;;;;;;;;28.52;58.57;101323.13;5107584;27;19915;-90
2023/08/18 11:38:33;;;;;;;;;;;;;;;28.53;57.95;101348.19;5095829;28;19918;-87
2023/08/18 11:41:05;;;;;;;;;;;;;;;28.53;58.16;101351.81;5090796;28;19962;-88
2023/08/18 11:43:32;;;;;;;;;;;;;;;28.57;58.05;101360.69;5119552;27;19922;-87
2023/08/18 11:45:57;;;;;;;;;;;;;;;28.59;58.20;101373.22;5112097;27;19920;-87
2023/08/18 11:48:27;;;;;;;;;;;;;;;28.55;58.35;101375.94;5103275;27;19923;-88
2023/08/18 11:50:59;;;;;;;;;;;;;;;28.57;58.29;101377.72;5105258;28;19923;-89
2023/08/18 11:53:31;;;;;;;;;;;;;;;28.58;58.35;101379.50;5106362;27;20400;-87
2023/08/18 11:55:57;;;;;;;;;;;;;;;28.56;58.36;101389.38;5086375;28;20343;-87
2023/08/18 11:58:28;;;;;;;;;;;;;;;28.58;58.48;101390.25;5105263;28;19986;-89
2023/08/18 12:00:54;;;;;;;;;;;;;;;28.62;58.36;101381.25;5107969;28;20106;-87
2023/08/18 12:03:21;;;;;;;;;;;;;;;28.63;58.36;101374.06;5122986;27;19918;-86
2023/08/18 12:05:46;;;;;;;;;;;;;;;28.60;58.68;101363.38;5098381;28;20064;-85
2023/08/18 12:11:49;;;;;;;;;;;;;;;28.59;58.63;101366.94;5071736;28;19970;-88
2023/08/18 12:17:48;;;;;;;;;;;;;;;28.64;58.38;101386.63;5069449;28;19962;-88
2023/08/18 12:23:37;;;;;;;;;;;;;;;28.64;58.57;101357.06;5016937;28;19928;-89
2023/08/18 12:26:04;;;;;;;;;;;;;;;28.66;58.24;101349.88;5050519;28;19928;-88
2023/08/18 12:28:58;;;;;;;;;;;;;;;28.65;58.76;101355.25;5073378;28;19939;-88
2023/08/18 12:31:43;;;;;;;;;;;;;;;28.60;58.83;101353.50;5099660;28;19912;-88
2023/08/18 12:34:10;;;;;;;;;;;;;;;28.65;58.67;101353.44;5097436;28;19927;-89
2023/08/18 12:36:36;;;;;;;;;;;;;;;28.66;58.91;101357.00;5095401;28;19935;-90
2023/08/18 12:39:03;;;;;;;;;;;;;;;28.64;59.07;101359.75;5098140;28;20359;-90
2023/08/18 12:41:32;;;;;;;;;;;;;;;28.66;58.64;101354.31;5100686;28;19920;-92
2023/08/18 12:43:57;;;;;;;;;;;;;;;28.66;58.91;101351.63;5062120;28;19969;-90
2023/08/18 12:46:23;;;;;;;;;;;;;;;28.62;58.66;101351.69;5105917;28;20007;-89
2023/08/18 12:48:48;;;;;;;;;;;;;;;28.68;58.36;101358.81;5111724;28;20305;-88
2023/08/18 12:51:17;;;;;;;;;;;;;;;28.68;58.77;101358.81;5091286;28;20380;-88
2023/08/18 12:53:45;;;;;;;;;;;;;;;28.69;58.68;101362.38;5103344;28;19963;-87
2023/08/18 12:56:10;;;;;;;;;;;;;;;28.73;58.23;101366.81;5101257;28;19916;-87
2023/08/18 12:58:36;;;;;;;;;;;;;;;28.73;58.34;101356.94;5091161;28;19915;-86
2023/08/18 13:01:01;;;;;;;;;;;;;;;28.73;58.34;101361.44;5091114;28;20446;-88
2023/08/18 13:03:26;;;;;;;;;;;;;;;28.74;58.24;101371.25;5087391;28;19926;-87
2023/08/18 13:05:52;;;;;;;;;;;;;;;28.79;58.17;101364.06;5077348;28;19916;-87
2023/08/18 13:08:17;;;;;;;;;;;;;;;28.74;58.06;101363.19;5107672;27;19938;-87
2023/08/18 13:10:46;;;;;;;;;;;;;;;28.78;57.84;101368.50;5113766;28;19912;-88
2023/08/18 13:13:11;;;;;;;;;;;;;;;28.81;57.80;101360.44;5101230;28;19922;-87